San Francisco International Airport
KSFO : now visible

Airfield :











YOU CAN JOIN US ON...

 
LOGIN :

Register | Disclaimer

   EN    FR    IT 

 









Legend :    VFR   Marginal VFR   IFR   Intensive IFR   Very Intensive IFR
Visi :
Ceiling :
>= 8 km
>= 3000ft
5 to 8 km
1000 to 3000 ft
1500m to 5 km
500 to 1000 ft
800 to 1500m
200 to 500 ft
< 800m
< 200 ft
Symbols :   Thunderstorms  Fog  Heavy snow  Heavy precipitations  Wind > 20 kt






- Airport Elevation : 13 ft
- IATA code : SFO


KSFO - San Francisco International

CURRENT METAR :
  • 171356Z 00000KT 10SM FEW012 FEW170 12/09 A3011 RMK AO2 SLP195 T01170094 $

EXPIRED METARs :
  • 171256Z 16003KT 10SM FEW012 12/09 A3009 RMK AO2 SLP190 T01170094 $
  • 171156Z 00000KT 8SM CLR 11/08 A3009 RMK AO2 SLP189 T01110083 10122 20094 58002 $

TAF KSFO
Valid from the 17 at 14:00 until the 18 at 18:00 UTC


171406Z 1714/1818 VRB04KT P6SM FEW007
FM171800 04004KT P6SM FEW005
FM172200 29010KT P6SM SKC
FM180400 29005KT P6SM FEW005
FM181200 VRB04KT P6SM FEW005



MET'MAP, your aeronautical weather chart ! - Copyright ORBIFLY December 2007 - Disclaimer

ORBIFLY MET'MAP TEAM :

Programming & Development : Alexandra Zaïnal
Concept & Development : Baudouin d'Aumeries
Co-Development & Prog : Marc-Olivier Méhu
Technical & hardware support : Manuel Goepfert

Contact : metmap@orbifly.com




SOURCES & CREDITS :

   NOAA       Earth
Advisory